sensor_id;sensor_type;location;lat;lon;timestamp;pressure;altitude;pressure_sealevel;temperature;humidity
79703;BME280;69172;52.352;5.006;2023-06-14T00:00:12;101602.00;;;19.65;51.97
79703;BME280;69172;52.352;5.006;2023-06-14T00:02:39;101595.75;;;19.60;52.99
79703;BME280;69172;52.352;5.006;2023-06-14T00:05:07;101600.03;;;19.58;52.60
79703;BME280;69172;52.352;5.006;2023-06-14T00:07:38;101600.88;;;19.57;52.37
79703;BME280;69172;52.352;5.006;2023-06-14T00:10:04;101599.94;;;19.55;52.36
79703;BME280;69172;52.352;5.006;2023-06-14T00:12:32;101603.31;;;19.51;52.62
79703;BME280;69172;52.352;5.006;2023-06-14T00:14:59;101600.72;;;19.52;52.56
79703;BME280;69172;52.352;5.006;2023-06-14T00:17:27;101600.59;;;19.48;51.93
79703;BME280;69172;52.352;5.006;2023-06-14T00:19:57;101603.03;;;19.43;51.67
79703;BME280;69172;52.352;5.006;2023-06-14T00:22:23;101605.66;;;19.43;51.75
79703;BME280;69172;52.352;5.006;2023-06-14T00:24:52;101603.00;;;19.42;51.74
79703;BME280;69172;52.352;5.006;2023-06-14T00:27:18;101602.91;;;19.39;52.30
79703;BME280;69172;52.352;5.006;2023-06-14T00:29:43;101597.44;;;19.33;51.83
79703;BME280;69172;52.352;5.006;2023-06-14T00:32:09;101600.06;;;19.33;50.97
79703;BME280;69172;52.352;5.006;2023-06-14T00:34:35;101598.31;;;19.32;51.51
79703;BME280;69172;52.352;5.006;2023-06-14T00:37:01;101590.31;;;19.27;51.26
79703;BME280;69172;52.352;5.006;2023-06-14T00:39:26;101599.00;;;19.26;51.51
79703;BME280;69172;52.352;5.006;2023-06-14T00:41:52;101591.06;;;19.23;52.19
79703;BME280;69172;52.352;5.006;2023-06-14T00:44:17;101595.34;;;19.21;51.42
79703;BME280;69172;52.352;5.006;2023-06-14T00:46:44;101592.75;;;19.21;51.43
79703;BME280;69172;52.352;5.006;2023-06-14T00:49:12;101603.25;;;19.24;51.32
79703;BME280;69172;52.352;5.006;2023-06-14T00:51:38;101598.88;;;19.23;51.35
79703;BME280;69172;52.352;5.006;2023-06-14T00:54:04;101598.00;;;19.23;51.57
79703;BME280;69172;52.352;5.006;2023-06-14T00:56:29;101593.50;;;19.19;52.08
79703;BME280;69172;52.352;5.006;2023-06-14T00:58:56;101597.84;;;19.18;52.50
79703;BME280;69172;52.352;5.006;2023-06-14T01:01:21;101598.72;;;19.19;52.14
79703;BME280;69172;52.352;5.006;2023-06-14T01:03:47;101596.97;;;19.18;52.19
79703;BME280;69172;52.352;5.006;2023-06-14T01:14:55;101601.75;;;19.06;51.12
79703;BME280;69172;52.352;5.006;2023-06-14T01:17:22;101605.25;;;19.06;51.20
79703;BME280;69172;52.352;5.006;2023-06-14T01:19:48;101606.78;;;18.99;52.23
79703;BME280;69172;52.352;5.006;2023-06-14T01:22:14;101602.25;;;18.94;51.81
79703;BME280;69172;52.352;5.006;2023-06-14T01:24:39;101608.19;;;18.90;52.17
79703;BME280;69172;52.352;5.006;2023-06-14T01:27:10;101610.69;;;18.87;52.03
79703;BME280;69172;52.352;5.006;2023-06-14T01:29:36;101602.03;;;18.88;52.66
79703;BME280;69172;52.352;5.006;2023-06-14T01:32:02;101599.09;;;18.79;52.76
79703;BME280;69172;52.352;5.006;2023-06-14T01:34:28;101600.72;;;18.75;52.48
79703;BME280;69172;52.352;5.006;2023-06-14T01:36:55;101609.28;;;18.71;53.46
79703;BME280;69172;52.352;5.006;2023-06-14T01:39:23;101614.41;;;18.70;54.09
79703;BME280;69172;52.352;5.006;2023-06-14T01:41:49;101609.00;;;18.64;53.15
79703;BME280;69172;52.352;5.006;2023-06-14T01:44:17;101620.16;;;18.60;53.61
79703;BME280;69172;52.352;5.006;2023-06-14T01:46:44;101622.72;;;18.58;53.40
79703;BME280;69172;52.352;5.006;2023-06-14T01:49:10;101612.06;;;18.52;53.62
79703;BME280;69172;52.352;5.006;2023-06-14T01:51:36;101619.91;;;18.54;53.75
79703;BME280;69172;52.352;5.006;2023-06-14T01:54:01;101612.66;;;18.45;53.14
79703;BME280;69172;52.352;5.006;2023-06-14T01:56:27;101621.41;;;18.47;53.54
79703;BME280;69172;52.352;5.006;2023-06-14T01:58:52;101615.19;;;18.43;53.46
79703;BME280;69172;52.352;5.006;2023-06-14T02:01:19;101615.06;;;18.40;53.86
79703;BME280;69172;52.352;5.006;2023-06-14T02:03:47;101617.69;;;18.40;53.45
79703;BME280;69172;52.352;5.006;2023-06-14T02:06:13;101624.56;;;18.38;52.39
79703;BME280;69172;52.352;5.006;2023-06-14T02:08:41;101621.78;;;18.34;52.24
79703;BME280;69172;52.352;5.006;2023-06-14T02:11:06;101621.72;;;18.32;51.96
79703;BME280;69172;52.352;5.006;2023-06-14T02:13:31;101613.09;;;18.33;52.30
79703;BME280;69172;52.352;5.006;2023-06-14T02:15:57;101606.84;;;18.28;51.95
79703;BME280;69172;52.352;5.006;2023-06-14T02:18:23;101610.38;;;18.30;51.56
79703;BME280;69172;52.352;5.006;2023-06-14T02:20:48;101602.56;;;18.30;50.83
79703;BME280;69172;52.352;5.006;2023-06-14T02:23:14;101606.84;;;18.28;50.39
79703;BME280;69172;52.352;5.006;2023-06-14T02:25:40;101600.78;;;18.29;51.33
79703;BME280;69172;52.352;5.006;2023-06-14T02:28:05;101610.31;;;18.29;50.61
79703;BME280;69172;52.352;5.006;2023-06-14T02:30:31;101602.28;;;18.23;51.16
79703;BME280;69172;52.352;5.006;2023-06-14T02:32:56;101603.09;;;18.22;51.71
79703;BME280;69172;52.352;5.006;2023-06-14T02:35:22;101606.44;;;18.18;52.17
79703;BME280;69172;52.352;5.006;2023-06-14T02:37:51;101606.25;;;18.13;52.42
79703;BME280;69172;52.352;5.006;2023-06-14T02:40:17;101606.13;;;18.10;51.24
79703;BME280;69172;52.352;5.006;2023-06-14T02:42:43;101602.66;;;18.10;52.38
79703;BME280;69172;52.352;5.006;2023-06-14T02:45:08;101610.28;;;18.05;53.62
79703;BME280;69172;52.352;5.006;2023-06-14T02:47:34;101604.78;;;17.98;53.06
79703;BME280;69172;52.352;5.006;2023-06-14T02:49:59;101612.47;;;17.95;53.45
79703;BME280;69172;52.352;5.006;2023-06-14T02:52:25;101611.53;;;17.93;53.24
79703;BME280;69172;52.352;5.006;2023-06-14T02:54:50;101610.50;;;17.88;53.53
79703;BME280;69172;52.352;5.006;2023-06-14T02:57:16;101612.97;;;17.84;52.76
79703;BME280;69172;52.352;5.006;2023-06-14T02:59:41;101619.06;;;17.85;53.28
79703;BME280;69172;52.352;5.006;2023-06-14T03:02:07;101623.31;;;17.83;53.52
79703;BME280;69172;52.352;5.006;2023-06-14T03:04:32;101609.97;;;17.74;52.46
79703;BME280;69172;52.352;5.006;2023-06-14T03:07:02;101631.84;;;17.79;53.73
79703;BME280;69172;52.352;5.006;2023-06-14T03:09:28;101624.66;;;17.73;55.14
79703;BME280;69172;52.352;5.006;2023-06-14T03:11:53;101636.63;;;17.68;55.69
79703;BME280;69172;52.352;5.006;2023-06-14T03:14:19;101639.00;;;17.64;53.81
79703;BME280;69172;52.352;5.006;2023-06-14T03:16:46;101646.66;;;17.59;51.63
79703;BME280;69172;52.352;5.006;2023-06-14T03:19:11;101645.28;;;17.48;52.66
79703;BME280;69172;52.352;5.006;2023-06-14T03:21:37;101648.75;;;17.47;53.12
79703;BME280;69172;52.352;5.006;2023-06-14T03:24:04;101646.94;;;17.46;52.60
79703;BME280;69172;52.352;5.006;2023-06-14T03:26:52;101651.22;;;17.44;51.62
79703;BME280;69172;52.352;5.006;2023-06-14T03:29:18;101655.44;;;17.42;51.59
79703;BME280;69172;52.352;5.006;2023-06-14T03:31:57;101656.34;;;17.43;51.59
79703;BME280;69172;52.352;5.006;2023-06-14T03:34:23;101665.66;;;17.38;51.65
79703;BME280;69172;52.352;5.006;2023-06-14T03:36:48;101668.13;;;17.35;51.48
79703;BME280;69172;52.352;5.006;2023-06-14T03:39:16;101667.25;;;17.34;51.49
79703;BME280;69172;52.352;5.006;2023-06-14T03:41:42;101665.34;;;17.30;51.36
79703;BME280;69172;52.352;5.006;2023-06-14T03:44:07;101666.03;;;17.26;51.89
79703;BME280;69172;52.352;5.006;2023-06-14T03:46:32;101677.28;;;17.25;52.25
79703;BME280;69172;52.352;5.006;2023-06-14T03:48:58;101667.06;;;17.30;51.20
79703;BME280;69172;52.352;5.006;2023-06-14T03:51:23;101660.97;;;17.29;51.84
79703;BME280;69172;52.352;5.006;2023-06-14T03:53:50;101663.44;;;17.26;51.66
79703;BME280;69172;52.352;5.006;2023-06-14T03:56:15;101666.94;;;17.26;51.99
79703;BME280;69172;52.352;5.006;2023-06-14T03:58:41;101676.53;;;17.27;52.26
79703;BME280;69172;52.352;5.006;2023-06-14T04:01:06;101671.19;;;17.24;51.21
79703;BME280;69172;52.352;5.006;2023-06-14T04:03:32;101666.03;;;17.26;52.23
79703;BME280;69172;52.352;5.006;2023-06-14T04:05:58;101674.69;;;17.25;52.31
79703;BME280;69172;52.352;5.006;2023-06-14T04:08:25;101679.16;;;17.29;51.47
79703;BME280;69172;52.352;5.006;2023-06-14T04:10:50;101686.03;;;17.27;51.57
79703;BME280;69172;52.352;5.006;2023-06-14T04:13:16;101683.47;;;17.28;51.78
79703;BME280;69172;52.352;5.006;2023-06-14T04:15:48;101683.47;;;17.28;51.34
79703;BME280;69172;52.352;5.006;2023-06-14T04:18:13;101686.97;;;17.29;51.07
79703;BME280;69172;52.352;5.006;2023-06-14T04:20:39;101690.53;;;17.31;50.45
79703;BME280;69172;52.352;5.006;2023-06-14T04:23:15;101692.25;;;17.31;51.15
79703;BME280;69172;52.352;5.006;2023-06-14T04:25:43;101693.25;;;17.34;51.54
79703;BME280;69172;52.352;5.006;2023-06-14T04:28:14;101693.19;;;17.33;50.92
79703;BME280;69172;52.352;5.006;2023-06-14T04:30:43;101690.31;;;17.26;51.50
79703;BME280;69172;52.352;5.006;2023-06-14T04:33:10;101693.78;;;17.25;51.52
79703;BME280;69172;52.352;5.006;2023-06-14T04:35:36;101694.63;;;17.26;51.88
79703;BME280;69172;52.352;5.006;2023-06-14T04:38:03;101696.25;;;17.22;51.74
79703;BME280;69172;52.352;5.006;2023-06-14T04:40:35;101706.97;;;17.30;51.67
79703;BME280;69172;52.352;5.006;2023-06-14T04:43:01;101702.50;;;17.27;51.57
79703;BME280;69172;52.352;5.006;2023-06-14T04:45:30;101706.19;;;17.33;51.59
79703;BME280;69172;52.352;5.006;2023-06-14T04:47:58;101710.38;;;17.29;52.25
79703;BME280;69172;52.352;5.006;2023-06-14T04:50:24;101699.03;;;17.27;52.48
79703;BME280;69172;52.352;5.006;2023-06-14T04:52:52;101707.63;;;17.26;52.23
79703;BME280;69172;52.352;5.006;2023-06-14T04:55:18;101706.81;;;17.27;52.19
79703;BME280;69172;52.352;5.006;2023-06-14T04:57:44;101702.44;;;17.26;53.47
79703;BME280;69172;52.352;5.006;2023-06-14T05:00:10;101710.22;;;17.26;53.03
79703;BME280;69172;52.352;5.006;2023-06-14T05:02:36;101698.00;;;17.23;53.21
79703;BME280;69172;52.352;5.006;2023-06-14T05:05:05;101707.63;;;17.26;54.24
79703;BME280;69172;52.352;5.006;2023-06-14T05:07:33;101711.97;;;17.25;53.32
79703;BME280;69172;52.352;5.006;2023-06-14T05:09:59;101708.47;;;17.25;53.26
79703;BME280;69172;52.352;5.006;2023-06-14T05:12:25;101705.03;;;17.26;52.90
79703;BME280;69172;52.352;5.006;2023-06-14T05:14:51;101716.78;;;17.37;53.44
79703;BME280;69172;52.352;5.006;2023-06-14T05:17:16;101713.19;;;17.34;54.19
79703;BME280;69172;52.352;5.006;2023-06-14T05:19:42;101709.88;;;17.38;53.42
79703;BME280;69172;52.352;5.006;2023-06-14T05:22:08;101709.31;;;17.45;53.25
79703;BME280;69172;52.352;5.006;2023-06-14T05:24:33;101714.69;;;17.49;53.14
79703;BME280;69172;52.352;5.006;2023-06-14T05:26:59;101714.09;;;17.55;52.87
79703;BME280;69172;52.352;5.006;2023-06-14T05:29:24;101708.91;;;17.55;53.37
79703;BME280;69172;52.352;5.006;2023-06-14T05:31:50;101706.22;;;17.53;53.18
79703;BME280;69172;52.352;5.006;2023-06-14T05:34:16;101716.84;;;17.58;53.00
79703;BME280;69172;52.352;5.006;2023-06-14T05:36:42;101704.69;;;17.58;53.31
79703;BME280;69172;52.352;5.006;2023-06-14T05:39:07;101707.50;;;17.63;52.85
79703;BME280;69172;52.352;5.006;2023-06-14T05:41:33;101717.97;;;17.64;53.43
79703;BME280;69172;52.352;5.006;2023-06-14T05:43:59;101711.00;;;17.63;53.40
79703;BME280;69172;52.352;5.006;2023-06-14T05:46:25;101714.97;;;17.76;53.52
79703;BME280;69172;52.352;5.006;2023-06-14T05:48:52;101725.25;;;17.73;54.33
79703;BME280;69172;52.352;5.006;2023-06-14T05:51:17;101723.53;;;17.73;53.87
79703;BME280;69172;52.352;5.006;2023-06-14T05:53:48;101729.91;;;17.80;53.14
79703;BME280;69172;52.352;5.006;2023-06-14T05:56:15;101728.38;;;17.85;52.94
79703;BME280;69172;52.352;5.006;2023-06-14T05:58:40;101721.53;;;17.89;52.98
79703;BME280;69172;52.352;5.006;2023-06-14T06:01:06;101738.31;;;17.95;52.63
79703;BME280;69172;52.352;5.006;2023-06-14T06:03:31;101743.50;;;17.95;52.90
79703;BME280;69172;52.352;5.006;2023-06-14T06:05:57;101741.94;;;17.99;53.12
79703;BME280;69172;52.352;5.006;2023-06-14T06:08:23;101746.53;;;18.06;52.93
79703;BME280;69172;52.352;5.006;2023-06-14T06:10:48;101748.34;;;18.07;52.77
79703;BME280;69172;52.352;5.006;2023-06-14T06:13:13;101744.19;;;18.12;53.18
79703;BME280;69172;52.352;5.006;2023-06-14T06:15:39;101749.69;;;18.19;52.80
79703;BME280;69172;52.352;5.006;2023-06-14T06:18:04;101749.09;;;18.26;50.95
79703;BME280;69172;52.352;5.006;2023-06-14T06:20:30;101740.59;;;18.30;52.36
79703;BME280;69172;52.352;5.006;2023-06-14T06:22:57;101734.66;;;18.34;51.47
79703;BME280;69172;52.352;5.006;2023-06-14T06:25:23;101746.09;;;18.38;51.48
79703;BME280;69172;52.352;5.006;2023-06-14T06:27:52;101750.59;;;18.42;51.00
79703;BME280;69172;52.352;5.006;2023-06-14T06:30:18;101741.56;;;18.55;51.17
79703;BME280;69172;52.352;5.006;2023-06-14T06:32:44;101738.25;;;18.59;50.94
79703;BME280;69172;52.352;5.006;2023-06-14T06:35:09;101742.69;;;18.61;51.35
79703;BME280;69172;52.352;5.006;2023-06-14T06:37:36;101742.81;;;18.64;50.83
79703;BME280;69172;52.352;5.006;2023-06-14T06:40:02;101742.88;;;18.67;50.49
79703;BME280;69172;52.352;5.006;2023-06-14T06:42:31;101747.41;;;18.71;50.18
79703;BME280;69172;52.352;5.006;2023-06-14T06:44:59;101743.31;;;18.78;50.43
79703;BME280;69172;52.352;5.006;2023-06-14T06:47:25;101752.44;;;18.90;50.13
79703;BME280;69172;52.352;5.006;2023-06-14T06:49:53;101749.09;;;18.94;50.45
79703;BME280;69172;52.352;5.006;2023-06-14T06:52:18;101753.63;;;18.98;49.75
79703;BME280;69172;52.352;5.006;2023-06-14T06:54:45;101758.00;;;18.99;50.75
79703;BME280;69172;52.352;5.006;2023-06-14T06:57:11;101756.34;;;19.01;50.10
79703;BME280;69172;52.352;5.006;2023-06-14T06:59:36;101766.25;;;19.12;49.76
79703;BME280;69172;52.352;5.006;2023-06-14T07:02:02;101768.41;;;19.23;49.62
79703;BME280;69172;52.352;5.006;2023-06-14T07:04:30;101770.91;;;19.20;50.57
79703;BME280;69172;52.352;5.006;2023-06-14T07:06:56;101775.50;;;19.27;49.52
79703;BME280;69172;52.352;5.006;2023-06-14T07:09:22;101775.78;;;19.35;49.21
79703;BME280;69172;52.352;5.006;2023-06-14T07:11:48;101776.25;;;19.47;49.16
79703;BME280;69172;52.352;5.006;2023-06-14T07:14:13;101774.53;;;19.47;49.61
79703;BME280;69172;52.352;5.006;2023-06-14T07:16:39;101785.19;;;19.53;50.07
79703;BME280;69172;52.352;5.006;2023-06-14T07:19:06;101775.09;;;19.64;48.39
79703;BME280;69172;52.352;5.006;2023-06-14T07:21:31;101778.63;;;19.66;48.80
79703;BME280;69172;52.352;5.006;2023-06-14T07:23:57;101782.63;;;19.82;47.93
79703;BME280;69172;52.352;5.006;2023-06-14T07:26:22;101787.06;;;19.84;47.58
79703;BME280;69172;52.352;5.006;2023-06-14T07:28:48;101787.28;;;19.90;47.19
79703;BME280;69172;52.352;5.006;2023-06-14T07:31:15;101792.13;;;20.05;47.43
79703;BME280;69172;52.352;5.006;2023-06-14T07:33:41;101788.88;;;20.12;47.72
79703;BME280;69172;52.352;5.006;2023-06-14T07:36:07;101796.84;;;20.16;47.23
79703;BME280;69172;52.352;5.006;2023-06-14T07:38:33;101790.19;;;20.25;47.29
79703;BME280;69172;52.352;5.006;2023-06-14T07:40:59;101794.63;;;20.27;47.08
79703;BME280;69172;52.352;5.006;2023-06-14T07:43:25;101794.91;;;20.36;46.81
79703;BME280;69172;52.352;5.006;2023-06-14T07:45:51;101799.41;;;20.42;47.86
79703;BME280;69172;52.352;5.006;2023-06-14T07:48:17;101797.75;;;20.44;47.62
79703;BME280;69172;52.352;5.006;2023-06-14T07:50:43;101797.03;;;20.49;45.97
79703;BME280;69172;52.352;5.006;2023-06-14T07:53:08;101793.00;;;20.59;45.16
79703;BME280;69172;52.352;5.006;2023-06-14T07:55:33;101792.19;;;20.61;45.88
79703;BME280;69172;52.352;5.006;2023-06-14T07:58:02;101790.66;;;20.68;45.29
79703;BME280;69172;52.352;5.006;2023-06-14T08:00:28;101793.34;;;20.71;46.17
79703;BME280;69172;52.352;5.006;2023-06-14T08:02:53;101800.56;;;20.79;45.88
79703;BME280;69172;52.352;5.006;2023-06-14T08:05:25;101802.56;;;20.87;46.29
79703;BME280;69172;52.352;5.006;2023-06-14T08:07:51;101809.72;;;20.94;45.29
79703;BME280;69172;52.352;5.006;2023-06-14T08:10:17;101806.31;;;20.96;45.06
79703;BME280;69172;52.352;5.006;2023-06-14T08:12:42;101798.44;;;20.96;44.34
79703;BME280;69172;52.352;5.006;2023-06-14T08:15:08;101803.09;;;21.06;43.78
79703;BME280;69172;52.352;5.006;2023-06-14T08:17:34;101808.44;;;21.09;43.61
79703;BME280;69172;52.352;5.006;2023-06-14T08:19:59;101797.50;;;21.22;42.75
79703;BME280;69172;52.352;5.006;2023-06-14T08:22:27;101810.81;;;21.30;43.78
79703;BME280;69172;52.352;5.006;2023-06-14T08:24:53;101799.63;;;21.37;43.14
79703;BME280;69172;52.352;5.006;2023-06-14T08:27:20;101807.59;;;21.42;43.15
79703;BME280;69172;52.352;5.006;2023-06-14T08:29:46;101799.09;;;21.49;42.14
79703;BME280;69172;52.352;5.006;2023-06-14T08:32:12;101806.25;;;21.56;42.70
79703;BME280;69172;52.352;5.006;2023-06-14T08:34:38;101800.38;;;21.64;42.32
79703;BME280;69172;52.352;5.006;2023-06-14T08:37:03;101805.81;;;21.72;41.88
79703;BME280;69172;52.352;5.006;2023-06-14T08:39:30;101799.88;;;21.79;42.44
79703;BME280;69172;52.352;5.006;2023-06-14T08:41:56;101794.81;;;21.85;41.37
79703;BME280;69172;52.352;5.006;2023-06-14T08:44:22;101801.09;;;21.91;41.62
79703;BME280;69172;52.352;5.006;2023-06-14T08:46:48;101804.88;;;22.03;41.17
79703;BME280;69172;52.352;5.006;2023-06-14T08:49:16;101799.88;;;22.12;41.15
79703;BME280;69172;52.352;5.006;2023-06-14T08:51:43;101801.75;;;22.17;41.45
79703;BME280;69172;52.352;5.006;2023-06-14T08:54:10;101803.63;;;22.23;39.85
79703;BME280;69172;52.352;5.006;2023-06-14T08:56:38;101799.41;;;22.29;40.09
79703;BME280;69172;52.352;5.006;2023-06-14T08:59:05;101808.31;;;22.37;40.24
79703;BME280;69172;52.352;5.006;2023-06-14T09:01:34;101804.28;;;22.50;39.49
79703;BME280;69172;52.352;5.006;2023-06-14T09:04:00;101801.81;;;22.58;39.25
79703;BME280;69172;52.352;5.006;2023-06-14T09:06:27;101795.84;;;22.63;39.59
79703;BME280;69172;52.352;5.006;2023-06-14T09:08:54;101808.22;;;22.70;38.38
79703;BME280;69172;52.352;5.006;2023-06-14T09:11:20;101804.03;;;22.77;37.11
79703;BME280;69172;52.352;5.006;2023-06-14T09:13:46;101802.31;;;22.79;38.50
79703;BME280;69172;52.352;5.006;2023-06-14T09:16:12;101804.16;;;22.84;37.81
79703;BME280;69172;52.352;5.006;2023-06-14T09:18:45;101799.97;;;22.92;37.33
79703;BME280;69172;52.352;5.006;2023-06-14T09:21:14;101808.88;;;23.00;37.11
79703;BME280;69172;52.352;5.006;2023-06-14T09:23:44;101801.28;;;23.13;35.46
79703;BME280;69172;52.352;5.006;2023-06-14T09:26:16;101799.69;;;23.21;36.08
79703;BME280;69172;52.352;5.006;2023-06-14T09:28:46;101810.38;;;23.31;35.80
79703;BME280;69172;52.352;5.006;2023-06-14T09:31:12;101809.81;;;23.46;36.36
79703;BME280;69172;52.352;5.006;2023-06-14T09:33:38;101800.31;;;23.54;33.47
79703;BME280;69172;52.352;5.006;2023-06-14T09:38:29;101804.00;;;23.63;34.79
79703;BME280;69172;52.352;5.006;2023-06-14T09:40:58;101814.72;;;23.74;34.52
79703;BME280;69172;52.352;5.006;2023-06-14T09:43:24;101810.47;;;23.82;33.36
79703;BME280;69172;52.352;5.006;2023-06-14T09:45:51;101815.00;;;23.91;33.35
79703;BME280;69172;52.352;5.006;2023-06-14T09:48:17;101818.59;;;23.97;31.30
79703;BME280;69172;52.352;5.006;2023-06-14T09:50:45;101808.25;;;24.06;31.98
79703;BME280;69172;52.352;5.006;2023-06-14T09:53:12;101820.59;;;24.09;31.82
79703;BME280;69172;52.352;5.006;2023-06-14T09:55:40;101813.69;;;24.15;31.95
79703;BME280;69172;52.352;5.006;2023-06-14T09:58:07;101812.06;;;24.23;31.91
79703;BME280;69172;52.352;5.006;2023-06-14T10:00:34;101813.81;;;24.23;31.93
79703;BME280;69172;52.352;5.006;2023-06-14T10:03:13;101815.50;;;24.19;31.96
79703;BME280;69172;52.352;5.006;2023-06-14T10:05:42;101812.91;;;24.22;31.79
79703;BME280;69172;52.352;5.006;2023-06-14T10:08:09;101812.22;;;24.34;32.18
79703;BME280;69172;52.352;5.006;2023-06-14T10:10:35;101816.69;;;24.40;31.69
79703;BME280;69172;52.352;5.006;2023-06-14T10:13:03;101817.66;;;24.46;31.19
79703;BME280;69172;52.352;5.006;2023-06-14T10:16:05;101820.31;;;24.49;31.02
79703;BME280;69172;52.352;5.006;2023-06-14T10:21:25;101803.09;;;24.69;30.90
79703;BME280;69172;52.352;5.006;2023-06-14T10:23:53;101810.22;;;24.78;32.21
79703;BME280;69172;52.352;5.006;2023-06-14T10:26:20;101808.47;;;24.78;31.93
79703;BME280;69172;52.352;5.006;2023-06-14T10:29:06;101821.69;;;24.80;32.83
79703;BME280;69172;52.352;5.006;2023-06-14T10:31:46;101804.97;;;24.78;32.72
79703;BME280;69172;52.352;5.006;2023-06-14T10:34:21;101802.41;;;24.82;30.04
79703;BME280;69172;52.352;5.006;2023-06-14T10:37:00;101804.28;;;24.93;29.77
79703;BME280;69172;52.352;5.006;2023-06-14T10:39:27;101801.81;;;25.05;29.70
79703;BME280;69172;52.352;5.006;2023-06-14T10:41:54;101797.53;;;25.13;29.57
79703;BME280;69172;52.352;5.006;2023-06-14T10:49:16;101802.75;;;25.08;30.07
79703;BME280;69172;52.352;5.006;2023-06-14T10:51:45;101803.56;;;25.04;28.68
79703;BME280;69172;52.352;5.006;2023-06-14T10:54:14;101813.16;;;25.01;29.16
79703;BME280;69172;52.352;5.006;2023-06-14T10:56:52;101811.50;;;25.09;28.98
79703;BME280;69172;52.352;5.006;2023-06-14T10:59:20;101813.34;;;25.16;31.03
79703;BME280;69172;52.352;5.006;2023-06-14T11:02:20;101807.34;;;25.29;32.92
79703;BME280;69172;52.352;5.006;2023-06-14T11:04:51;101809.25;;;25.42;32.71
79703;BME280;69172;52.352;5.006;2023-06-14T11:12:36;101819.31;;;25.00;35.32
79703;BME280;69172;52.352;5.006;2023-06-14T11:15:04;101816.72;;;25.04;33.78
79703;BME280;69172;52.352;5.006;2023-06-14T11:17:30;101812.47;;;25.14;33.44
79703;BME280;69172;52.352;5.006;2023-06-14T11:20:14;101808.91;;;25.12;32.87
79703;BME280;69172;52.352;5.006;2023-06-14T11:22:44;101806.44;;;25.24;32.79
79703;BME280;69172;52.352;5.006;2023-06-14T11:25:11;101813.09;;;24.95;38.45
79703;BME280;69172;52.352;5.006;2023-06-14T11:27:37;101813.47;;;24.59;37.53
79703;BME280;69172;52.352;5.006;2023-06-14T11:30:02;101808.84;;;24.44;38.28
79703;BME280;69172;52.352;5.006;2023-06-14T11:32:28;101802.75;;;24.45;37.34
79703;BME280;69172;52.352;5.006;2023-06-14T11:34:53;101800.59;;;24.20;34.66
79703;BME280;69172;52.352;5.006;2023-06-14T11:37:19;101802.59;;;24.36;39.71
79703;BME280;69172;52.352;5.006;2023-06-14T11:39:45;101801.06;;;24.52;35.18
79703;BME280;69172;52.352;5.006;2023-06-14T11:42:15;101796.94;;;24.67;34.90
79703;BME280;69172;52.352;5.006;2023-06-14T11:44:40;101792.84;;;24.89;33.39
79703;BME280;69172;52.352;5.006;2023-06-14T11:47:06;101802.50;;;24.90;32.57
79703;BME280;69172;52.352;5.006;2023-06-14T11:49:38;101797.44;;;25.07;34.67
79703;BME280;69172;52.352;5.006;2023-06-14T11:52:04;101798.97;;;24.87;36.51
79703;BME280;69172;52.352;5.006;2023-06-14T11:54:31;101793.50;;;24.73;35.58
79703;BME280;69172;52.352;5.006;2023-06-14T11:56:58;101801.19;;;24.59;36.33
79703;BME280;69172;52.352;5.006;2023-06-14T11:59:24;101802.50;;;24.90;36.10
79703;BME280;69172;52.352;5.006;2023-06-14T12:01:50;101798.34;;;25.06;34.97
79703;BME280;69172;52.352;5.006;2023-06-14T12:04:29;101795.84;;;25.19;33.36
79703;BME280;69172;52.352;5.006;2023-06-14T12:06:55;101782.81;;;25.33;31.17
79703;BME280;69172;52.352;5.006;2023-06-14T12:09:23;101783.75;;;25.39;32.96
79703;BME280;69172;52.352;5.006;2023-06-14T12:11:51;101797.22;;;25.64;32.33
79703;BME280;69172;52.352;5.006;2023-06-14T12:14:30;101798.22;;;25.79;36.29
79703;BME280;69172;52.352;5.006;2023-06-14T12:17:06;101794.34;;;25.42;39.87
79703;BME280;69172;52.352;5.006;2023-06-14T12:19:41;101800.03;;;25.02;38.12
79703;BME280;69172;52.352;5.006;2023-06-14T12:22:10;101801.00;;;25.10;38.22
79703;BME280;69172;52.352;5.006;2023-06-14T12:24:35;101799.69;;;24.78;38.82
79703;BME280;69172;52.352;5.006;2023-06-14T12:27:01;101803.34;;;24.88;40.40
79703;BME280;69172;52.352;5.006;2023-06-14T12:29:30;101795.78;;;25.13;38.95
79703;BME280;69172;52.352;5.006;2023-06-14T12:31:56;101795.00;;;25.23;35.20
79703;BME280;69172;52.352;5.006;2023-06-14T12:34:25;101787.19;;;25.31;36.08
79703;BME280;69172;52.352;5.006;2023-06-14T12:36:55;101797.06;;;25.50;36.52
79703;BME280;69172;52.352;5.006;2023-06-14T12:39:21;101793.56;;;25.48;36.53
79703;BME280;69172;52.352;5.006;2023-06-14T12:41:47;101796.97;;;25.44;38.38
79703;BME280;69172;52.352;5.006;2023-06-14T12:44:14;101790.06;;;25.52;34.92
79703;BME280;69172;52.352;5.006;2023-06-14T12:46:40;101793.41;;;25.37;36.50
79703;BME280;69172;52.352;5.006;2023-06-14T12:49:11;101797.78;;;25.35;36.66
79703;BME280;69172;52.352;5.006;2023-06-14T12:51:37;101790.66;;;25.28;40.39
79703;BME280;69172;52.352;5.006;2023-06-14T12:54:03;101779.56;;;25.55;39.38
79703;BME280;69172;52.352;5.006;2023-06-14T12:56:28;101784.94;;;25.69;36.10
79703;BME280;69172;52.352;5.006;2023-06-14T12:58:53;101784.16;;;25.76;36.45
79703;BME280;69172;52.352;5.006;2023-06-14T13:01:19;101785.84;;;25.68;36.69
79703;BME280;69172;52.352;5.006;2023-06-14T13:03:46;101792.97;;;25.82;37.14
79703;BME280;69172;52.352;5.006;2023-06-14T13:06:11;101793.94;;;25.93;36.94
79703;BME280;69172;52.352;5.006;2023-06-14T13:08:37;101802.59;;;25.76;38.14
79703;BME280;69172;52.352;5.006;2023-06-14T13:11:02;101793.97;;;25.92;34.33
79703;BME280;69172;52.352;5.006;2023-06-14T13:13:28;101794.09;;;26.10;33.50